sensor_id;sensor_type;location;lat;lon;timestamp;P1;durP1;ratioP1;P2;durP2;ratioP2
71916;SDS011;59793;46.506;6.674;2023-01-13T00:00:06;5.05;;;2.25;;
71916;SDS011;59793;46.506;6.674;2023-01-13T00:02:33;6.68;;;3.22;;
71916;SDS011;59793;46.506;6.674;2023-01-13T00:04:58;5.18;;;2.42;;
71916;SDS011;59793;46.506;6.674;2023-01-13T00:07:24;4.22;;;2.38;;
71916;SDS011;59793;46.506;6.674;2023-01-13T00:09:49;4.40;;;2.60;;
71916;SDS011;59793;46.506;6.674;2023-01-13T00:12:15;6.13;;;2.95;;
71916;SDS011;59793;46.506;6.674;2023-01-13T00:14:40;6.25;;;3.03;;
71916;SDS011;59793;46.506;6.674;2023-01-13T00:17:05;4.85;;;2.30;;
71916;SDS011;59793;46.506;6.674;2023-01-13T00:19:31;5.63;;;2.53;;
71916;SDS011;59793;46.506;6.674;2023-01-13T00:21:56;7.30;;;2.25;;
71916;SDS011;59793;46.506;6.674;2023-01-13T00:24:21;4.68;;;2.17;;
71916;SDS011;59793;46.506;6.674;2023-01-13T00:26:47;8.57;;;2.45;;
71916;SDS011;59793;46.506;6.674;2023-01-13T00:29:12;4.88;;;2.25;;
71916;SDS011;59793;46.506;6.674;2023-01-13T00:31:38;7.57;;;2.25;;
71916;SDS011;59793;46.506;6.674;2023-01-13T00:34:03;5.95;;;2.17;;
71916;SDS011;59793;46.506;6.674;2023-01-13T00:36:29;5.38;;;1.88;;
71916;SDS011;59793;46.506;6.674;2023-01-13T00:38:55;4.63;;;2.10;;
71916;SDS011;59793;46.506;6.674;2023-01-13T00:41:22;4.63;;;2.05;;
71916;SDS011;59793;46.506;6.674;2023-01-13T00:43:48;6.03;;;2.58;;
71916;SDS011;59793;46.506;6.674;2023-01-13T00:46:17;4.72;;;2.40;;
71916;SDS011;59793;46.506;6.674;2023-01-13T00:48:45;8.05;;;2.40;;
71916;SDS011;59793;46.506;6.674;2023-01-13T00:51:12;7.60;;;2.35;;
71916;SDS011;59793;46.506;6.674;2023-01-13T00:53:43;4.13;;;2.20;;
71916;SDS011;59793;46.506;6.674;2023-01-13T00:56:14;4.70;;;2.35;;
71916;SDS011;59793;46.506;6.674;2023-01-13T00:58:42;3.70;;;1.92;;
71916;SDS011;59793;46.506;6.674;2023-01-13T01:01:10;4.57;;;2.20;;
71916;SDS011;59793;46.506;6.674;2023-01-13T01:03:37;4.55;;;2.00;;
71916;SDS011;59793;46.506;6.674;2023-01-13T01:06:45;4.60;;;2.22;;
71916;SDS011;59793;46.506;6.674;2023-01-13T01:08:52;3.83;;;1.55;;
71916;SDS011;59793;46.506;6.674;2023-01-13T01:11:20;5.15;;;1.95;;
71916;SDS011;59793;46.506;6.674;2023-01-13T01:13:47;4.47;;;2.47;;
71916;SDS011;59793;46.506;6.674;2023-01-13T01:16:16;3.75;;;2.33;;
71916;SDS011;59793;46.506;6.674;2023-01-13T01:18:44;5.85;;;1.95;;
71916;SDS011;59793;46.506;6.674;2023-01-13T01:21:11;8.35;;;2.25;;
71916;SDS011;59793;46.506;6.674;2023-01-13T01:23:37;5.23;;;2.27;;
71916;SDS011;59793;46.506;6.674;2023-01-13T01:26:05;4.13;;;2.30;;
71916;SDS011;59793;46.506;6.674;2023-01-13T01:28:32;5.82;;;2.28;;
71916;SDS011;59793;46.506;6.674;2023-01-13T01:30:59;6.55;;;2.25;;
71916;SDS011;59793;46.506;6.674;2023-01-13T01:33:26;4.63;;;2.45;;
71916;SDS011;59793;46.506;6.674;2023-01-13T01:35:55;3.95;;;1.88;;
71916;SDS011;59793;46.506;6.674;2023-01-13T01:38:20;5.03;;;2.10;;
71916;SDS011;59793;46.506;6.674;2023-01-13T01:40:47;5.28;;;2.42;;
71916;SDS011;59793;46.506;6.674;2023-01-13T01:43:16;5.63;;;2.00;;
71916;SDS011;59793;46.506;6.674;2023-01-13T01:46:04;6.05;;;2.03;;
71916;SDS011;59793;46.506;6.674;2023-01-13T01:48:33;4.78;;;2.10;;
71916;SDS011;59793;46.506;6.674;2023-01-13T01:51:04;6.35;;;2.05;;
71916;SDS011;59793;46.506;6.674;2023-01-13T01:53:33;7.30;;;2.00;;
71916;SDS011;59793;46.506;6.674;2023-01-13T01:55:58;5.32;;;2.30;;
71916;SDS011;59793;46.506;6.674;2023-01-13T01:58:33;7.35;;;2.15;;
71916;SDS011;59793;46.506;6.674;2023-01-13T02:01:05;7.60;;;1.90;;
71916;SDS011;59793;46.506;6.674;2023-01-13T02:03:32;6.70;;;1.77;;
71916;SDS011;59793;46.506;6.674;2023-01-13T02:06:01;5.03;;;1.77;;
71916;SDS011;59793;46.506;6.674;2023-01-13T02:08:27;4.70;;;1.90;;
71916;SDS011;59793;46.506;6.674;2023-01-13T02:10:53;5.63;;;1.83;;
71916;SDS011;59793;46.506;6.674;2023-01-13T02:13:18;6.25;;;2.45;;
71916;SDS011;59793;46.506;6.674;2023-01-13T02:29:09;5.40;;;2.10;;
71916;SDS011;59793;46.506;6.674;2023-01-13T02:31:56;4.00;;;1.95;;
71916;SDS011;59793;46.506;6.674;2023-01-13T02:39:44;6.38;;;1.90;;
71916;SDS011;59793;46.506;6.674;2023-01-13T02:42:49;8.82;;;2.38;;
71916;SDS011;59793;46.506;6.674;2023-01-13T02:45:43;3.78;;;1.75;;
71916;SDS011;59793;46.506;6.674;2023-01-13T02:48:14;6.03;;;2.30;;
71916;SDS011;59793;46.506;6.674;2023-01-13T02:50:43;8.73;;;2.03;;
71916;SDS011;59793;46.506;6.674;2023-01-13T02:53:16;5.15;;;2.42;;
71916;SDS011;59793;46.506;6.674;2023-01-13T02:55:47;5.38;;;2.13;;
71916;SDS011;59793;46.506;6.674;2023-01-13T02:58:18;6.75;;;2.72;;
71916;SDS011;59793;46.506;6.674;2023-01-13T03:00:48;9.73;;;3.13;;
71916;SDS011;59793;46.506;6.674;2023-01-13T03:03:13;6.40;;;2.75;;
71916;SDS011;59793;46.506;6.674;2023-01-13T03:05:39;4.82;;;2.25;;
71916;SDS011;59793;46.506;6.674;2023-01-13T03:11:07;6.00;;;2.42;;
71916;SDS011;59793;46.506;6.674;2023-01-13T03:16:30;6.30;;;2.03;;
71916;SDS011;59793;46.506;6.674;2023-01-13T03:19:24;8.18;;;2.35;;
71916;SDS011;59793;46.506;6.674;2023-01-13T03:27:07;4.38;;;2.42;;
71916;SDS011;59793;46.506;6.674;2023-01-13T03:29:47;7.35;;;2.58;;
71916;SDS011;59793;46.506;6.674;2023-01-13T03:32:34;5.82;;;2.38;;
71916;SDS011;59793;46.506;6.674;2023-01-13T03:35:12;8.38;;;2.35;;
71916;SDS011;59793;46.506;6.674;2023-01-13T03:37:46;10.88;;;2.45;;
71916;SDS011;59793;46.506;6.674;2023-01-13T03:40:17;6.72;;;2.28;;
71916;SDS011;59793;46.506;6.674;2023-01-13T03:42:49;6.43;;;2.25;;
71916;SDS011;59793;46.506;6.674;2023-01-13T03:45:58;5.28;;;2.03;;
71916;SDS011;59793;46.506;6.674;2023-01-13T03:48:33;4.55;;;1.85;;
71916;SDS011;59793;46.506;6.674;2023-01-13T03:51:04;4.25;;;1.92;;
71916;SDS011;59793;46.506;6.674;2023-01-13T03:53:33;9.18;;;2.17;;
71916;SDS011;59793;46.506;6.674;2023-01-13T03:56:10;6.60;;;2.03;;
71916;SDS011;59793;46.506;6.674;2023-01-13T03:58:41;6.32;;;2.45;;
71916;SDS011;59793;46.506;6.674;2023-01-13T04:01:20;8.65;;;1.92;;
71916;SDS011;59793;46.506;6.674;2023-01-13T04:04:05;8.55;;;2.13;;
71916;SDS011;59793;46.506;6.674;2023-01-13T04:11:46;10.05;;;2.67;;
71916;SDS011;59793;46.506;6.674;2023-01-13T04:14:18;8.98;;;2.67;;
71916;SDS011;59793;46.506;6.674;2023-01-13T04:16:44;7.47;;;2.30;;
71916;SDS011;59793;46.506;6.674;2023-01-13T04:19:11;9.05;;;2.53;;
71916;SDS011;59793;46.506;6.674;2023-01-13T04:21:36;9.05;;;2.72;;
71916;SDS011;59793;46.506;6.674;2023-01-13T04:24:02;6.50;;;2.78;;
71916;SDS011;59793;46.506;6.674;2023-01-13T04:26:27;6.22;;;2.53;;
71916;SDS011;59793;46.506;6.674;2023-01-13T04:28:52;6.57;;;2.05;;
71916;SDS011;59793;46.506;6.674;2023-01-13T04:31:19;11.57;;;2.28;;
71916;SDS011;59793;46.506;6.674;2023-01-13T04:33:45;8.95;;;2.50;;
71916;SDS011;59793;46.506;6.674;2023-01-13T04:36:10;10.45;;;2.53;;
71916;SDS011;59793;46.506;6.674;2023-01-13T04:38:35;4.13;;;1.65;;
71916;SDS011;59793;46.506;6.674;2023-01-13T04:41:01;8.82;;;2.00;;
71916;SDS011;59793;46.506;6.674;2023-01-13T04:43:26;5.95;;;1.90;;
71916;SDS011;59793;46.506;6.674;2023-01-13T04:45:51;5.85;;;2.30;;
71916;SDS011;59793;46.506;6.674;2023-01-13T04:48:17;6.88;;;2.00;;
71916;SDS011;59793;46.506;6.674;2023-01-13T04:50:42;7.03;;;1.95;;
71916;SDS011;59793;46.506;6.674;2023-01-13T04:53:08;10.65;;;2.03;;
71916;SDS011;59793;46.506;6.674;2023-01-13T04:55:34;8.88;;;2.10;;
71916;SDS011;59793;46.506;6.674;2023-01-13T04:58:00;5.00;;;2.30;;
71916;SDS011;59793;46.506;6.674;2023-01-13T05:00:30;5.88;;;2.78;;
71916;SDS011;59793;46.506;6.674;2023-01-13T05:02:56;5.45;;;2.40;;
71916;SDS011;59793;46.506;6.674;2023-01-13T05:05:22;5.93;;;2.10;;
71916;SDS011;59793;46.506;6.674;2023-01-13T05:07:47;7.22;;;2.28;;
71916;SDS011;59793;46.506;6.674;2023-01-13T05:10:13;11.82;;;2.30;;
71916;SDS011;59793;46.506;6.674;2023-01-13T05:12:38;7.80;;;2.30;;
71916;SDS011;59793;46.506;6.674;2023-01-13T05:15:22;7.40;;;2.15;;
71916;SDS011;59793;46.506;6.674;2023-01-13T05:18:06;8.68;;;2.28;;
71916;SDS011;59793;46.506;6.674;2023-01-13T05:20:32;7.97;;;2.30;;
71916;SDS011;59793;46.506;6.674;2023-01-13T05:22:57;5.22;;;1.92;;
71916;SDS011;59793;46.506;6.674;2023-01-13T05:25:41;7.90;;;2.75;;
71916;SDS011;59793;46.506;6.674;2023-01-13T05:28:07;7.35;;;2.05;;
71916;SDS011;59793;46.506;6.674;2023-01-13T05:30:40;12.65;;;2.25;;
71916;SDS011;59793;46.506;6.674;2023-01-13T05:33:12;6.32;;;2.03;;
71916;SDS011;59793;46.506;6.674;2023-01-13T05:35:39;4.35;;;1.98;;
71916;SDS011;59793;46.506;6.674;2023-01-13T05:38:06;6.85;;;2.65;;
71916;SDS011;59793;46.506;6.674;2023-01-13T05:40:32;10.02;;;1.95;;
71916;SDS011;59793;46.506;6.674;2023-01-13T05:43:17;8.40;;;2.70;;
71916;SDS011;59793;46.506;6.674;2023-01-13T05:45:48;5.07;;;1.67;;
71916;SDS011;59793;46.506;6.674;2023-01-13T05:48:21;8.23;;;2.55;;
71916;SDS011;59793;46.506;6.674;2023-01-13T05:50:48;9.63;;;2.25;;
71916;SDS011;59793;46.506;6.674;2023-01-13T05:53:14;12.02;;;2.38;;
71916;SDS011;59793;46.506;6.674;2023-01-13T05:55:41;6.85;;;2.38;;
71916;SDS011;59793;46.506;6.674;2023-01-13T05:58:08;9.18;;;2.25;;
71916;SDS011;59793;46.506;6.674;2023-01-13T06:00:34;7.78;;;2.00;;
71916;SDS011;59793;46.506;6.674;2023-01-13T06:02:59;6.63;;;1.77;;
71916;SDS011;59793;46.506;6.674;2023-01-13T06:05:25;8.18;;;2.45;;
71916;SDS011;59793;46.506;6.674;2023-01-13T06:07:51;3.92;;;1.70;;
71916;SDS011;59793;46.506;6.674;2023-01-13T06:10:20;9.25;;;2.35;;
71916;SDS011;59793;46.506;6.674;2023-01-13T06:12:47;11.30;;;2.00;;
71916;SDS011;59793;46.506;6.674;2023-01-13T06:15:12;7.25;;;3.08;;
71916;SDS011;59793;46.506;6.674;2023-01-13T06:17:39;4.28;;;2.28;;
71916;SDS011;59793;46.506;6.674;2023-01-13T06:20:04;9.48;;;2.55;;
71916;SDS011;59793;46.506;6.674;2023-01-13T06:22:32;10.02;;;2.83;;
71916;SDS011;59793;46.506;6.674;2023-01-13T06:24:59;6.85;;;2.20;;
71916;SDS011;59793;46.506;6.674;2023-01-13T06:27:25;5.28;;;2.30;;
71916;SDS011;59793;46.506;6.674;2023-01-13T06:29:50;9.00;;;2.15;;
71916;SDS011;59793;46.506;6.674;2023-01-13T06:32:17;12.02;;;2.45;;
71916;SDS011;59793;46.506;6.674;2023-01-13T06:34:46;10.07;;;2.20;;
71916;SDS011;59793;46.506;6.674;2023-01-13T06:37:20;5.25;;;1.80;;
71916;SDS011;59793;46.506;6.674;2023-01-13T06:39:50;6.30;;;2.03;;
71916;SDS011;59793;46.506;6.674;2023-01-13T06:42:22;5.85;;;1.80;;
71916;SDS011;59793;46.506;6.674;2023-01-13T06:45:08;9.98;;;2.55;;
71916;SDS011;59793;46.506;6.674;2023-01-13T06:47:34;7.75;;;2.63;;
71916;SDS011;59793;46.506;6.674;2023-01-13T06:49:59;5.93;;;2.22;;
71916;SDS011;59793;46.506;6.674;2023-01-13T06:52:24;5.03;;;1.75;;
71916;SDS011;59793;46.506;6.674;2023-01-13T06:54:51;5.30;;;2.05;;
71916;SDS011;59793;46.506;6.674;2023-01-13T06:57:17;9.05;;;2.13;;
71916;SDS011;59793;46.506;6.674;2023-01-13T06:59:42;6.28;;;2.05;;
71916;SDS011;59793;46.506;6.674;2023-01-13T07:02:07;8.52;;;2.50;;
71916;SDS011;59793;46.506;6.674;2023-01-13T07:04:33;8.85;;;1.92;;
71916;SDS011;59793;46.506;6.674;2023-01-13T07:06:58;10.05;;;2.22;;
71916;SDS011;59793;46.506;6.674;2023-01-13T07:09:24;8.13;;;1.98;;
71916;SDS011;59793;46.506;6.674;2023-01-13T07:11:49;5.78;;;2.28;;
71916;SDS011;59793;46.506;6.674;2023-01-13T07:14:16;12.52;;;2.63;;
71916;SDS011;59793;46.506;6.674;2023-01-13T07:17:00;10.15;;;1.80;;
71916;SDS011;59793;46.506;6.674;2023-01-13T07:19:26;5.15;;;1.77;;
71916;SDS011;59793;46.506;6.674;2023-01-13T07:21:51;5.47;;;2.13;;
71916;SDS011;59793;46.506;6.674;2023-01-13T07:24:17;4.82;;;1.75;;
71916;SDS011;59793;46.506;6.674;2023-01-13T07:26:43;5.13;;;1.75;;
71916;SDS011;59793;46.506;6.674;2023-01-13T07:29:08;4.63;;;2.22;;
71916;SDS011;59793;46.506;6.674;2023-01-13T07:31:34;4.88;;;1.77;;
71916;SDS011;59793;46.506;6.674;2023-01-13T07:33:59;5.70;;;1.75;;
71916;SDS011;59793;46.506;6.674;2023-01-13T07:36:24;5.60;;;1.88;;
71916;SDS011;59793;46.506;6.674;2023-01-13T07:38:50;7.32;;;1.85;;
71916;SDS011;59793;46.506;6.674;2023-01-13T07:41:15;8.02;;;2.45;;
71916;SDS011;59793;46.506;6.674;2023-01-13T07:43:59;7.40;;;2.13;;
71916;SDS011;59793;46.506;6.674;2023-01-13T07:46:28;6.95;;;1.75;;
71916;SDS011;59793;46.506;6.674;2023-01-13T07:48:54;7.03;;;1.42;;
71916;SDS011;59793;46.506;6.674;2023-01-13T07:51:20;5.53;;;1.63;;
71916;SDS011;59793;46.506;6.674;2023-01-13T07:53:45;4.40;;;1.77;;
71916;SDS011;59793;46.506;6.674;2023-01-13T07:56:10;4.50;;;1.30;;
71916;SDS011;59793;46.506;6.674;2023-01-13T07:58:36;4.07;;;1.55;;
71916;SDS011;59793;46.506;6.674;2023-01-13T08:01:11;6.85;;;1.60;;
71916;SDS011;59793;46.506;6.674;2023-01-13T08:03:38;7.95;;;1.98;;
71916;SDS011;59793;46.506;6.674;2023-01-13T08:06:04;5.38;;;1.45;;
71916;SDS011;59793;46.506;6.674;2023-01-13T08:08:30;5.07;;;1.67;;
71916;SDS011;59793;46.506;6.674;2023-01-13T08:10:59;3.67;;;1.45;;
71916;SDS011;59793;46.506;6.674;2023-01-13T08:13:25;7.28;;;1.88;;
71916;SDS011;59793;46.506;6.674;2023-01-13T08:15:52;6.35;;;2.00;;
71916;SDS011;59793;46.506;6.674;2023-01-13T08:18:22;3.63;;;1.25;;
71916;SDS011;59793;46.506;6.674;2023-01-13T08:20:48;6.90;;;1.63;;
71916;SDS011;59793;46.506;6.674;2023-01-13T08:23:16;5.60;;;1.67;;
71916;SDS011;59793;46.506;6.674;2023-01-13T08:25:45;4.53;;;1.48;;
71916;SDS011;59793;46.506;6.674;2023-01-13T08:28:12;3.90;;;1.83;;
71916;SDS011;59793;46.506;6.674;2023-01-13T08:30:38;7.10;;;1.73;;
71916;SDS011;59793;46.506;6.674;2023-01-13T08:33:06;4.45;;;2.00;;
71916;SDS011;59793;46.506;6.674;2023-01-13T08:35:36;6.60;;;2.10;;
71916;SDS011;59793;46.506;6.674;2023-01-13T08:38:06;8.07;;;1.42;;
71916;SDS011;59793;46.506;6.674;2023-01-13T08:40:32;4.67;;;1.63;;
71916;SDS011;59793;46.506;6.674;2023-01-13T08:42:58;4.38;;;1.50;;
71916;SDS011;59793;46.506;6.674;2023-01-13T08:45:24;3.45;;;1.63;;
71916;SDS011;59793;46.506;6.674;2023-01-13T08:47:49;5.75;;;1.95;;
71916;SDS011;59793;46.506;6.674;2023-01-13T08:50:15;4.10;;;1.08;;
71916;SDS011;59793;46.506;6.674;2023-01-13T08:52:40;8.38;;;1.67;;
71916;SDS011;59793;46.506;6.674;2023-01-13T08:55:06;3.45;;;1.65;;
71916;SDS011;59793;46.506;6.674;2023-01-13T08:57:32;3.23;;;1.63;;
71916;SDS011;59793;46.506;6.674;2023-01-13T08:59:57;5.53;;;1.50;;
71916;SDS011;59793;46.506;6.674;2023-01-13T09:02:23;6.65;;;1.50;;
71916;SDS011;59793;46.506;6.674;2023-01-13T09:04:49;3.70;;;1.67;;
71916;SDS011;59793;46.506;6.674;2023-01-13T09:07:14;3.55;;;1.13;;
71916;SDS011;59793;46.506;6.674;2023-01-13T09:09:41;5.18;;;1.45;;
71916;SDS011;59793;46.506;6.674;2023-01-13T09:12:06;2.67;;;1.40;;
71916;SDS011;59793;46.506;6.674;2023-01-13T09:14:54;4.10;;;1.35;;
71916;SDS011;59793;46.506;6.674;2023-01-13T09:17:20;7.18;;;1.80;;
71916;SDS011;59793;46.506;6.674;2023-01-13T09:22:13;6.00;;;1.52;;
71916;SDS011;59793;46.506;6.674;2023-01-13T09:24:40;5.70;;;1.85;;
71916;SDS011;59793;46.506;6.674;2023-01-13T09:27:05;5.70;;;1.95;;
71916;SDS011;59793;46.506;6.674;2023-01-13T09:29:31;5.88;;;1.30;;
71916;SDS011;59793;46.506;6.674;2023-01-13T09:31:56;5.57;;;1.55;;
71916;SDS011;59793;46.506;6.674;2023-01-13T09:34:24;4.57;;;1.70;;
71916;SDS011;59793;46.506;6.674;2023-01-13T09:37:08;5.20;;;1.52;;
71916;SDS011;59793;46.506;6.674;2023-01-13T09:39:34;5.93;;;1.63;;
71916;SDS011;59793;46.506;6.674;2023-01-13T09:47:32;5.10;;;1.70;;
71916;SDS011;59793;46.506;6.674;2023-01-13T09:52:33;4.50;;;1.98;;
71916;SDS011;59793;46.506;6.674;2023-01-13T09:55:08;5.30;;;1.67;;
71916;SDS011;59793;46.506;6.674;2023-01-13T09:57:39;4.93;;;1.85;;
71916;SDS011;59793;46.506;6.674;2023-01-13T10:00:11;11.15;;;2.40;;
71916;SDS011;59793;46.506;6.674;2023-01-13T10:05:38;4.47;;;1.80;;
71916;SDS011;59793;46.506;6.674;2023-01-13T10:08:16;3.97;;;1.58;;
71916;SDS011;59793;46.506;6.674;2023-01-13T10:10:55;7.25;;;2.40;;
71916;SDS011;59793;46.506;6.674;2023-01-13T10:13:24;4.32;;;1.42;;
71916;SDS011;59793;46.506;6.674;2023-01-13T10:18:38;3.65;;;1.65;;
71916;SDS011;59793;46.506;6.674;2023-01-13T10:23:57;4.60;;;1.63;;
71916;SDS011;59793;46.506;6.674;2023-01-13T10:29:15;2.47;;;1.13;;
71916;SDS011;59793;46.506;6.674;2023-01-13T10:31:46;4.18;;;1.85;;
71916;SDS011;59793;46.506;6.674;2023-01-13T10:34:11;5.50;;;1.85;;
71916;SDS011;59793;46.506;6.674;2023-01-13T10:36:41;7.22;;;1.83;;
71916;SDS011;59793;46.506;6.674;2023-01-13T10:39:43;4.47;;;1.65;;
71916;SDS011;59793;46.506;6.674;2023-01-13T10:42:11;4.80;;;2.03;;
71916;SDS011;59793;46.506;6.674;2023-01-13T10:44:45;3.10;;;1.35;;
71916;SDS011;59793;46.506;6.674;2023-01-13T10:47:18;3.50;;;1.50;;
71916;SDS011;59793;46.506;6.674;2023-01-13T10:52:34;4.05;;;1.75;;
71916;SDS011;59793;46.506;6.674;2023-01-13T10:55:11;6.70;;;1.67;;
71916;SDS011;59793;46.506;6.674;2023-01-13T10:57:50;2.72;;;1.38;;
71916;SDS011;59793;46.506;6.674;2023-01-13T11:00:28;4.07;;;1.70;;
71916;SDS011;59793;46.506;6.674;2023-01-13T11:03:32;3.00;;;1.10;;
71916;SDS011;59793;46.506;6.674;2023-01-13T11:05:56;3.92;;;1.35;;
71916;SDS011;59793;46.506;6.674;2023-01-13T11:08:27;3.10;;;1.70;;
71916;SDS011;59793;46.506;6.674;2023-01-13T11:14:04;2.17;;;1.15;;
71916;SDS011;59793;46.506;6.674;2023-01-13T11:20:27;5.10;;;1.60;;
71916;SDS011;59793;46.506;6.674;2023-01-13T11:22:59;3.10;;;1.25;;
71916;SDS011;59793;46.506;6.674;2023-01-13T11:25:32;5.00;;;1.25;;
71916;SDS011;59793;46.506;6.674;2023-01-13T11:30:52;3.25;;;1.60;;
71916;SDS011;59793;46.506;6.674;2023-01-13T11:33:27;3.53;;;0.90;;
71916;SDS011;59793;46.506;6.674;2023-01-13T11:38:45;3.63;;;1.38;;
71916;SDS011;59793;46.506;6.674;2023-01-13T11:44:09;2.58;;;1.08;;
71916;SDS011;59793;46.506;6.674;2023-01-13T11:46:42;2.17;;;1.10;;
71916;SDS011;59793;46.506;6.674;2023-01-13T11:49:09;3.17;;;1.50;;
71916;SDS011;59793;46.506;6.674;2023-01-13T11:51:56;3.83;;;1.50;;
71916;SDS011;59793;46.506;6.674;2023-01-13T12:00:02;7.88;;;2.28;;
71916;SDS011;59793;46.506;6.674;2023-01-13T12:27:21;1.42;;;1.23;;
71916;SDS011;59793;46.506;6.674;2023-01-13T12:29:49;5.28;;;1.60;;
71916;SDS011;59793;46.506;6.674;2023-01-13T12:32:17;1.55;;;1.10;;
71916;SDS011;59793;46.506;6.674;2023-01-13T12:34:52;6.60;;;1.50;;
71916;SDS011;59793;46.506;6.674;2023-01-13T12:37:31;2.47;;;1.23;;
71916;SDS011;59793;46.506;6.674;2023-01-13T12:45:26;2.25;;;1.02;;
71916;SDS011;59793;46.506;6.674;2023-01-13T12:47:55;5.43;;;1.27;;
71916;SDS011;59793;46.506;6.674;2023-01-13T12:57:58;0.65;;;0.63;;
71916;SDS011;59793;46.506;6.674;2023-01-13T13:13:57;4.03;;;1.15;;
71916;SDS011;59793;46.506;6.674;2023-01-13T13:24:31;2.85;;;0.80;;
71916;SDS011;59793;46.506;6.674;2023-01-13T13:26:57;2.00;;;0.80;;
71916;SDS011;59793;46.506;6.674;2023-01-13T13:29:48;1.75;;;0.88;;
71916;SDS011;59793;46.506;6.674;2023-01-13T13:32:26;2.03;;;0.80;;
71916;SDS011;59793;46.506;6.674;2023-01-13T13:40:54;2.00;;;0.90;;
71916;SDS011;59793;46.506;6.674;2023-01-13T13:43:43;1.70;;;0.80;;
71916;SDS011;59793;46.506;6.674;2023-01-13T13:46:28;2.97;;;0.82;;
71916;SDS011;59793;46.506;6.674;2023-01-13T13:49:18;2.58;;;0.80;;
71916;SDS011;59793;46.506;6.674;2023-01-13T13:54:45;2.92;;;0.70;;
71916;SDS011;59793;46.506;6.674;2023-01-13T13:57:18;3.70;;;0.90;;
71916;SDS011;59793;46.506;6.674;2023-01-13T13:59:54;1.20;;;0.80;;
71916;SDS011;59793;46.506;6.674;2023-01-13T14:02:23;0.90;;;0.73;;
71916;SDS011;59793;46.506;6.674;2023-01-13T14:05:05;2.38;;;0.77;;
71916;SDS011;59793;46.506;6.674;2023-01-13T14:07:44;2.72;;;0.85;;
71916;SDS011;59793;46.506;6.674;2023-01-13T14:10:19;2.08;;;0.90;;
71916;SDS011;59793;46.506;6.674;2023-01-13T14:12:48;3.42;;;1.00;;
71916;SDS011;59793;46.506;6.674;2023-01-13T14:15:48;4.22;;;0.88;;
71916;SDS011;59793;46.506;6.674;2023-01-13T14:18:14;4.68;;;1.00;;
71916;SDS011;59793;46.506;6.674;2023-01-13T14:20:42;0.73;;;0.70;;
71916;SDS011;59793;46.506;6.674;2023-01-13T14:23:15;4.13;;;0.82;;
71916;SDS011;59793;46.506;6.674;2023-01-13T14:25:48;1.45;;;0.55;;
71916;SDS011;59793;46.506;6.674;2023-01-13T14:28:23;1.95;;;1.00;;
71916;SDS011;59793;46.506;6.674;2023-01-13T14:30:59;1.70;;;0.73;;
71916;SDS011;59793;46.506;6.674;2023-01-13T14:33:30;0.67;;;0.40;;
71916;SDS011;59793;46.506;6.674;2023-01-13T14:36:09;1.77;;;0.82;;
71916;SDS011;59793;46.506;6.674;2023-01-13T14:38:40;1.00;;;0.47;;
71916;SDS011;59793;46.506;6.674;2023-01-13T14:41:08;3.30;;;0.82;;
71916;SDS011;59793;46.506;6.674;2023-01-13T14:43:40;0.60;;;0.40;;
71916;SDS011;59793;46.506;6.674;2023-01-13T14:46:07;1.27;;;0.60;;
71916;SDS011;59793;46.506;6.674;2023-01-13T14:48:33;1.80;;;0.60;;
71916;SDS011;59793;46.506;6.674;2023-01-13T14:51:04;2.17;;;0.70;;
71916;SDS011;59793;46.506;6.674;2023-01-13T14:53:38;1.95;;;0.73;;
71916;SDS011;59793;46.506;6.674;2023-01-13T15:10:31;0.82;;;0.60;;
71916;SDS011;59793;46.506;6.674;2023-01-13T15:13:03;2.15;;;0.82;;
71916;SDS011;59793;46.506;6.674;2023-01-13T15:15:31;1.98;;;1.20;;
71916;SDS011;59793;46.506;6.674;2023-01-13T15:18:00;2.17;;;0.82;;
71916;SDS011;59793;46.506;6.674;2023-01-13T15:20:46;2.10;;;1.00;;
71916;SDS011;59793;46.506;6.674;2023-01-13T15:23:11;3.47;;;1.42;;
71916;SDS011;59793;46.506;6.674;2023-01-13T15:25:38;1.23;;;1.00;;
71916;SDS011;59793;46.506;6.674;2023-01-13T15:28:06;3.03;;;0.82;;
71916;SDS011;59793;46.506;6.674;2023-01-13T15:30:38;3.00;;;0.82;;
71916;SDS011;59793;46.506;6.674;2023-01-13T15:33:04;2.28;;;1.10;;
71916;SDS011;59793;46.506;6.674;2023-01-13T15:35:30;8.20;;;1.48;;
71916;SDS011;59793;46.506;6.674;2023-01-13T15:37:56;3.25;;;1.00;;
71916;SDS011;59793;46.506;6.674;2023-01-13T15:42:47;3.65;;;1.30;;
71916;SDS011;59793;46.506;6.674;2023-01-13T15:45:31;3.58;;;1.25;;
71916;SDS011;59793;46.506;6.674;2023-01-13T15:48:19;2.70;;;1.27;;
71916;SDS011;59793;46.506;6.674;2023-01-13T15:50:46;7.80;;;1.90;;
71916;SDS011;59793;46.506;6.674;2023-01-13T15:53:12;2.90;;;1.33;;
71916;SDS011;59793;46.506;6.674;2023-01-13T15:55:38;2.33;;;1.05;;
71916;SDS011;59793;46.506;6.674;2023-01-13T15:58:05;2.47;;;1.10;;
71916;SDS011;59793;46.506;6.674;2023-01-13T16:00:31;2.88;;;1.30;;
71916;SDS011;59793;46.506;6.674;2023-01-13T16:02:57;2.95;;;1.08;;
71916;SDS011;59793;46.506;6.674;2023-01-13T16:05:23;2.22;;;0.75;;
71916;SDS011;59793;46.506;6.674;2023-01-13T16:07:49;1.83;;;0.90;;
71916;SDS011;59793;46.506;6.674;2023-01-13T16:10:22;1.55;;;1.05;;
71916;SDS011;59793;46.506;6.674;2023-01-13T16:12:51;1.55;;;0.88;;
71916;SDS011;59793;46.506;6.674;2023-01-13T16:15:17;1.95;;;0.80;;
71916;SDS011;59793;46.506;6.674;2023-01-13T16:17:56;1.77;;;0.77;;
71916;SDS011;59793;46.506;6.674;2023-01-13T16:20:24;1.48;;;0.80;;
71916;SDS011;59793;46.506;6.674;2023-01-13T16:22:50;2.08;;;1.15;;
71916;SDS011;59793;46.506;6.674;2023-01-13T16:25:16;3.17;;;0.80;;
71916;SDS011;59793;46.506;6.674;2023-01-13T16:27:44;1.98;;;0.82;;
71916;SDS011;59793;46.506;6.674;2023-01-13T16:30:32;5.13;;;1.50;;
71916;SDS011;59793;46.506;6.674;2023-01-13T16:33:00;2.97;;;1.42;;
71916;SDS011;59793;46.506;6.674;2023-01-13T16:35:26;4.13;;;1.17;;
71916;SDS011;59793;46.506;6.674;2023-01-13T16:37:53;1.92;;;0.75;;
71916;SDS011;59793;46.506;6.674;2023-01-13T16:40:26;1.67;;;0.70;;
71916;SDS011;59793;46.506;6.674;2023-01-13T16:42:57;2.22;;;0.90;;
71916;SDS011;59793;46.506;6.674;2023-01-13T16:45:25;3.15;;;1.30;;
71916;SDS011;59793;46.506;6.674;2023-01-13T16:47:50;2.17;;;1.13;;
71916;SDS011;59793;46.506;6.674;2023-01-13T16:52:54;5.57;;;1.70;;
71916;SDS011;59793;46.506;6.674;2023-01-13T16:55:19;1.15;;;0.70;;
71916;SDS011;59793;46.506;6.674;2023-01-13T16:57:45;7.68;;;2.30;;
71916;SDS011;59793;46.506;6.674;2023-01-13T17:00:11;3.53;;;1.15;;
71916;SDS011;59793;46.506;6.674;2023-01-13T17:02:37;3.72;;;1.83;;
71916;SDS011;59793;46.506;6.674;2023-01-13T17:05:03;0.80;;;0.70;;
71916;SDS011;59793;46.506;6.674;2023-01-13T17:07:29;5.20;;;1.47;;
71916;SDS011;59793;46.506;6.674;2023-01-13T17:09:54;2.35;;;1.10;;
71916;SDS011;59793;46.506;6.674;2023-01-13T17:12:20;3.28;;;0.95;;
71916;SDS011;59793;46.506;6.674;2023-01-13T17:14:45;1.30;;;0.68;;
71916;SDS011;59793;46.506;6.674;2023-01-13T17:17:21;1.02;;;0.60;;
71916;SDS011;59793;46.506;6.674;2023-01-13T17:22:14;2.30;;;0.90;;
71916;SDS011;59793;46.506;6.674;2023-01-13T17:24:39;1.40;;;0.82;;
71916;SDS011;59793;46.506;6.674;2023-01-13T17:27:04;1.33;;;0.88;;
71916;SDS011;59793;46.506;6.674;2023-01-13T17:29:30;1.60;;;1.13;;
71916;SDS011;59793;46.506;6.674;2023-01-13T17:31:56;3.58;;;0.80;;
71916;SDS011;59793;46.506;6.674;2023-01-13T17:34:22;1.88;;;0.90;;
71916;SDS011;59793;46.506;6.674;2023-01-13T17:36:47;6.97;;;0.88;;
71916;SDS011;59793;46.506;6.674;2023-01-13T17:39:16;1.67;;;0.80;;
71916;SDS011;59793;46.506;6.674;2023-01-13T17:41:43;3.30;;;0.90;;
71916;SDS011;59793;46.506;6.674;2023-01-13T17:44:13;2.90;;;1.63;;
71916;SDS011;59793;46.506;6.674;2023-01-13T17:46:40;2.78;;;1.17;;
71916;SDS011;59793;46.506;6.674;2023-01-13T17:49:06;3.42;;;1.58;;
71916;SDS011;59793;46.506;6.674;2023-01-13T17:51:35;2.05;;;1.13;;
71916;SDS011;59793;46.506;6.674;2023-01-13T17:54:01;3.20;;;1.10;;